sensor_id;sensor_type;location;lat;lon;timestamp;temperature;humidity
20487;DHT22;10402;49.012;8.370;2024-01-25T00:00:17;12.40;78.00
20487;DHT22;10402;49.012;8.370;2024-01-25T00:02:42;12.40;78.10
20487;DHT22;10402;49.012;8.370;2024-01-25T00:05:08;12.40;78.20
20487;DHT22;10402;49.012;8.370;2024-01-25T00:07:33;12.40;78.20
20487;DHT22;10402;49.012;8.370;2024-01-25T00:09:59;12.50;78.40
20487;DHT22;10402;49.012;8.370;2024-01-25T00:12:25;12.40;78.30
20487;DHT22;10402;49.012;8.370;2024-01-25T00:14:50;12.40;78.40
20487;DHT22;10402;49.012;8.370;2024-01-25T00:17:18;12.40;78.50
20487;DHT22;10402;49.012;8.370;2024-01-25T00:19:43;12.40;78.70
20487;DHT22;10402;49.012;8.370;2024-01-25T00:22:09;12.40;78.80
20487;DHT22;10402;49.012;8.370;2024-01-25T00:24:34;12.40;79.00
20487;DHT22;10402;49.012;8.370;2024-01-25T00:27:00;12.40;79.00
20487;DHT22;10402;49.012;8.370;2024-01-25T00:29:25;12.40;79.00
20487;DHT22;10402;49.012;8.370;2024-01-25T00:31:51;12.40;79.10
20487;DHT22;10402;49.012;8.370;2024-01-25T00:34:16;12.40;79.20
20487;DHT22;10402;49.012;8.370;2024-01-25T00:36:42;12.40;79.40
20487;DHT22;10402;49.012;8.370;2024-01-25T00:39:08;12.40;79.50
20487;DHT22;10402;49.012;8.370;2024-01-25T00:41:34;12.40;79.50
20487;DHT22;10402;49.012;8.370;2024-01-25T00:44:01;12.40;79.50
20487;DHT22;10402;49.012;8.370;2024-01-25T00:46:26;12.40;79.70
20487;DHT22;10402;49.012;8.370;2024-01-25T00:48:52;12.40;79.60
20487;DHT22;10402;49.012;8.370;2024-01-25T00:51:21;12.40;79.80
20487;DHT22;10402;49.012;8.370;2024-01-25T00:53:47;12.40;79.80
20487;DHT22;10402;49.012;8.370;2024-01-25T00:56:13;12.40;79.80
20487;DHT22;10402;49.012;8.370;2024-01-25T00:58:39;12.40;79.80
20487;DHT22;10402;49.012;8.370;2024-01-25T01:01:05;12.40;79.80
20487;DHT22;10402;49.012;8.370;2024-01-25T01:03:31;12.40;80.00
20487;DHT22;10402;49.012;8.370;2024-01-25T01:05:56;12.40;80.00
20487;DHT22;10402;49.012;8.370;2024-01-25T01:08:23;12.40;80.10
20487;DHT22;10402;49.012;8.370;2024-01-25T01:10:49;12.40;80.20
20487;DHT22;10402;49.012;8.370;2024-01-25T01:13:14;12.40;80.20
20487;DHT22;10402;49.012;8.370;2024-01-25T01:15:40;12.40;80.30
20487;DHT22;10402;49.012;8.370;2024-01-25T01:18:05;12.40;80.50
20487;DHT22;10402;49.012;8.370;2024-01-25T01:20:31;12.40;80.60
20487;DHT22;10402;49.012;8.370;2024-01-25T01:22:56;12.40;80.60
20487;DHT22;10402;49.012;8.370;2024-01-25T01:25:22;12.40;80.60
20487;DHT22;10402;49.012;8.370;2024-01-25T01:27:47;12.40;80.50
20487;DHT22;10402;49.012;8.370;2024-01-25T01:30:13;12.40;80.60
20487;DHT22;10402;49.012;8.370;2024-01-25T01:32:38;12.40;80.50
20487;DHT22;10402;49.012;8.370;2024-01-25T01:35:04;12.40;80.50
20487;DHT22;10402;49.012;8.370;2024-01-25T01:37:30;12.40;80.50
20487;DHT22;10402;49.012;8.370;2024-01-25T01:39:55;12.40;80.40
20487;DHT22;10402;49.012;8.370;2024-01-25T01:42:21;12.40;80.40
20487;DHT22;10402;49.012;8.370;2024-01-25T01:44:49;12.40;80.40
20487;DHT22;10402;49.012;8.370;2024-01-25T01:47:15;12.40;80.40
20487;DHT22;10402;49.012;8.370;2024-01-25T01:49:41;12.40;80.30
20487;DHT22;10402;49.012;8.370;2024-01-25T01:52:08;12.40;80.20
20487;DHT22;10402;49.012;8.370;2024-01-25T01:54:33;12.50;80.40
20487;DHT22;10402;49.012;8.370;2024-01-25T01:56:59;12.50;80.40
20487;DHT22;10402;49.012;8.370;2024-01-25T01:59:26;12.40;80.30
20487;DHT22;10402;49.012;8.370;2024-01-25T02:01:52;12.40;80.30
20487;DHT22;10402;49.012;8.370;2024-01-25T02:04:18;12.40;80.40
20487;DHT22;10402;49.012;8.370;2024-01-25T02:06:43;12.50;80.40
20487;DHT22;10402;49.012;8.370;2024-01-25T02:09:11;12.40;80.30
20487;DHT22;10402;49.012;8.370;2024-01-25T02:11:37;12.40;80.50
20487;DHT22;10402;49.012;8.370;2024-01-25T02:14:02;12.40;80.50
20487;DHT22;10402;49.012;8.370;2024-01-25T02:16:28;12.40;80.50
20487;DHT22;10402;49.012;8.370;2024-01-25T02:18:53;12.40;80.60
20487;DHT22;10402;49.012;8.370;2024-01-25T02:21:22;12.40;80.50
20487;DHT22;10402;49.012;8.370;2024-01-25T02:23:48;12.40;80.30
20487;DHT22;10402;49.012;8.370;2024-01-25T02:26:13;12.40;80.30
20487;DHT22;10402;49.012;8.370;2024-01-25T02:28:39;12.40;80.00
20487;DHT22;10402;49.012;8.370;2024-01-25T02:31:04;12.40;80.00
20487;DHT22;10402;49.012;8.370;2024-01-25T02:33:30;12.30;79.90
20487;DHT22;10402;49.012;8.370;2024-01-25T02:35:55;12.40;80.00
20487;DHT22;10402;49.012;8.370;2024-01-25T02:38:21;12.40;80.00
20487;DHT22;10402;49.012;8.370;2024-01-25T02:40:47;12.40;80.00
20487;DHT22;10402;49.012;8.370;2024-01-25T02:43:12;12.30;80.00
20487;DHT22;10402;49.012;8.370;2024-01-25T02:45:38;12.30;80.00
20487;DHT22;10402;49.012;8.370;2024-01-25T02:48:04;12.30;80.00
20487;DHT22;10402;49.012;8.370;2024-01-25T02:50:29;12.30;80.00
20487;DHT22;10402;49.012;8.370;2024-01-25T02:52:55;12.40;80.10
20487;DHT22;10402;49.012;8.370;2024-01-25T02:55:21;12.30;79.90
20487;DHT22;10402;49.012;8.370;2024-01-25T02:57:46;12.30;79.90
20487;DHT22;10402;49.012;8.370;2024-01-25T03:00:12;12.30;79.80
20487;DHT22;10402;49.012;8.370;2024-01-25T03:02:38;12.30;79.90
20487;DHT22;10402;49.012;8.370;2024-01-25T03:05:04;12.30;79.90
20487;DHT22;10402;49.012;8.370;2024-01-25T03:07:29;12.30;79.90
20487;DHT22;10402;49.012;8.370;2024-01-25T03:09:55;12.30;79.40
20487;DHT22;10402;49.012;8.370;2024-01-25T03:12:21;12.30;79.10
20487;DHT22;10402;49.012;8.370;2024-01-25T03:14:48;12.30;79.00
20487;DHT22;10402;49.012;8.370;2024-01-25T03:17:14;12.30;78.90
20487;DHT22;10402;49.012;8.370;2024-01-25T03:19:39;12.30;78.90
20487;DHT22;10402;49.012;8.370;2024-01-25T03:22:05;12.30;78.90
20487;DHT22;10402;49.012;8.370;2024-01-25T03:24:30;12.30;78.70
20487;DHT22;10402;49.012;8.370;2024-01-25T03:26:56;12.30;78.60
20487;DHT22;10402;49.012;8.370;2024-01-25T03:29:21;12.30;78.40
20487;DHT22;10402;49.012;8.370;2024-01-25T03:31:47;12.30;78.30
20487;DHT22;10402;49.012;8.370;2024-01-25T03:34:12;12.30;78.30
20487;DHT22;10402;49.012;8.370;2024-01-25T03:36:38;12.30;78.30
20487;DHT22;10402;49.012;8.370;2024-01-25T03:39:05;12.30;78.30
20487;DHT22;10402;49.012;8.370;2024-01-25T03:41:30;12.30;78.20
20487;DHT22;10402;49.012;8.370;2024-01-25T03:43:56;12.30;78.30
20487;DHT22;10402;49.012;8.370;2024-01-25T03:46:21;12.30;78.10
20487;DHT22;10402;49.012;8.370;2024-01-25T03:48:47;12.30;77.90
20487;DHT22;10402;49.012;8.370;2024-01-25T03:51:12;12.30;77.80
20487;DHT22;10402;49.012;8.370;2024-01-25T03:53:38;12.30;77.70
20487;DHT22;10402;49.012;8.370;2024-01-25T03:56:13;12.30;77.60
20487;DHT22;10402;49.012;8.370;2024-01-25T03:58:38;12.30;77.50
20487;DHT22;10402;49.012;8.370;2024-01-25T04:01:04;12.20;77.50
20487;DHT22;10402;49.012;8.370;2024-01-25T04:03:29;12.20;77.50
20487;DHT22;10402;49.012;8.370;2024-01-25T04:05:55;12.20;77.30
20487;DHT22;10402;49.012;8.370;2024-01-25T04:08:20;12.20;77.30
20487;DHT22;10402;49.012;8.370;2024-01-25T04:10:46;12.20;78.10
20487;DHT22;10402;49.012;8.370;2024-01-25T04:13:11;12.20;77.50
20487;DHT22;10402;49.012;8.370;2024-01-25T04:15:37;12.20;78.20
20487;DHT22;10402;49.012;8.370;2024-01-25T04:18:02;12.20;77.30
20487;DHT22;10402;49.012;8.370;2024-01-25T04:20:28;12.20;77.20
20487;DHT22;10402;49.012;8.370;2024-01-25T04:22:54;12.20;77.20
20487;DHT22;10402;49.012;8.370;2024-01-25T04:25:19;12.20;77.30
20487;DHT22;10402;49.012;8.370;2024-01-25T04:27:45;12.20;77.30
20487;DHT22;10402;49.012;8.370;2024-01-25T04:30:17;12.20;77.20
20487;DHT22;10402;49.012;8.370;2024-01-25T04:32:43;12.20;77.00
20487;DHT22;10402;49.012;8.370;2024-01-25T04:35:09;12.20;76.80
20487;DHT22;10402;49.012;8.370;2024-01-25T04:37:35;12.20;76.40
20487;DHT22;10402;49.012;8.370;2024-01-25T04:40:01;12.20;76.00
20487;DHT22;10402;49.012;8.370;2024-01-25T04:42:27;12.20;76.00
20487;DHT22;10402;49.012;8.370;2024-01-25T04:44:53;12.20;76.00
20487;DHT22;10402;49.012;8.370;2024-01-25T04:47:18;12.10;75.90
20487;DHT22;10402;49.012;8.370;2024-01-25T04:49:44;12.10;75.90
20487;DHT22;10402;49.012;8.370;2024-01-25T04:52:10;12.10;75.90
20487;DHT22;10402;49.012;8.370;2024-01-25T04:54:35;12.10;75.90
20487;DHT22;10402;49.012;8.370;2024-01-25T04:57:01;12.10;75.80
20487;DHT22;10402;49.012;8.370;2024-01-25T04:59:27;12.10;75.90
20487;DHT22;10402;49.012;8.370;2024-01-25T05:01:53;12.10;75.90
20487;DHT22;10402;49.012;8.370;2024-01-25T05:04:20;12.10;75.90
20487;DHT22;10402;49.012;8.370;2024-01-25T05:06:46;12.00;75.80
20487;DHT22;10402;49.012;8.370;2024-01-25T05:09:11;12.00;75.70
20487;DHT22;10402;49.012;8.370;2024-01-25T05:11:40;12.00;75.70
20487;DHT22;10402;49.012;8.370;2024-01-25T05:14:06;12.00;75.80
20487;DHT22;10402;49.012;8.370;2024-01-25T05:16:32;12.00;75.70
20487;DHT22;10402;49.012;8.370;2024-01-25T05:18:57;11.90;76.00
20487;DHT22;10402;49.012;8.370;2024-01-25T05:21:23;11.90;76.40
20487;DHT22;10402;49.012;8.370;2024-01-25T05:23:48;11.90;76.60
20487;DHT22;10402;49.012;8.370;2024-01-25T05:26:15;11.80;76.50
20487;DHT22;10402;49.012;8.370;2024-01-25T05:28:41;11.80;76.60
20487;DHT22;10402;49.012;8.370;2024-01-25T05:31:06;11.80;76.60
20487;DHT22;10402;49.012;8.370;2024-01-25T05:33:38;11.70;76.50
20487;DHT22;10402;49.012;8.370;2024-01-25T05:36:04;11.70;76.70
20487;DHT22;10402;49.012;8.370;2024-01-25T05:38:31;11.70;76.70
20487;DHT22;10402;49.012;8.370;2024-01-25T05:40:57;11.70;77.00
20487;DHT22;10402;49.012;8.370;2024-01-25T05:43:23;11.60;77.00
20487;DHT22;10402;49.012;8.370;2024-01-25T05:45:48;11.60;77.30
20487;DHT22;10402;49.012;8.370;2024-01-25T05:48:14;11.60;77.40
20487;DHT22;10402;49.012;8.370;2024-01-25T05:50:40;11.50;77.40
20487;DHT22;10402;49.012;8.370;2024-01-25T05:53:05;11.50;77.40
20487;DHT22;10402;49.012;8.370;2024-01-25T05:55:31;11.50;77.50
20487;DHT22;10402;49.012;8.370;2024-01-25T05:57:57;11.50;77.60
20487;DHT22;10402;49.012;8.370;2024-01-25T06:00:22;11.50;77.70
20487;DHT22;10402;49.012;8.370;2024-01-25T06:02:48;11.40;78.00
20487;DHT22;10402;49.012;8.370;2024-01-25T06:05:14;11.30;77.90
20487;DHT22;10402;49.012;8.370;2024-01-25T06:07:39;11.20;78.00
20487;DHT22;10402;49.012;8.370;2024-01-25T06:10:06;11.20;78.10
20487;DHT22;10402;49.012;8.370;2024-01-25T06:12:32;11.10;78.30
20487;DHT22;10402;49.012;8.370;2024-01-25T06:14:57;11.10;78.60
20487;DHT22;10402;49.012;8.370;2024-01-25T06:17:23;11.00;78.60
20487;DHT22;10402;49.012;8.370;2024-01-25T06:19:48;11.00;78.80
20487;DHT22;10402;49.012;8.370;2024-01-25T06:22:14;11.00;78.90
20487;DHT22;10402;49.012;8.370;2024-01-25T06:24:39;10.90;78.90
20487;DHT22;10402;49.012;8.370;2024-01-25T06:27:05;10.90;79.20
20487;DHT22;10402;49.012;8.370;2024-01-25T06:29:30;10.90;79.50
20487;DHT22;10402;49.012;8.370;2024-01-25T06:31:56;10.90;79.60
20487;DHT22;10402;49.012;8.370;2024-01-25T06:34:21;10.90;79.90
20487;DHT22;10402;49.012;8.370;2024-01-25T06:36:47;10.80;80.00
20487;DHT22;10402;49.012;8.370;2024-01-25T06:39:12;10.80;80.20
20487;DHT22;10402;49.012;8.370;2024-01-25T06:41:38;10.80;80.20
20487;DHT22;10402;49.012;8.370;2024-01-25T06:44:03;10.80;80.30
20487;DHT22;10402;49.012;8.370;2024-01-25T06:46:29;10.80;80.50
20487;DHT22;10402;49.012;8.370;2024-01-25T06:48:55;10.80;80.70
20487;DHT22;10402;49.012;8.370;2024-01-25T06:51:20;10.80;80.70
20487;DHT22;10402;49.012;8.370;2024-01-25T06:53:46;10.80;80.80
20487;DHT22;10402;49.012;8.370;2024-01-25T06:56:12;10.80;81.00
20487;DHT22;10402;49.012;8.370;2024-01-25T06:58:37;10.70;81.00
20487;DHT22;10402;49.012;8.370;2024-01-25T07:01:03;10.70;81.00
20487;DHT22;10402;49.012;8.370;2024-01-25T07:03:29;10.70;81.00
20487;DHT22;10402;49.012;8.370;2024-01-25T07:05:55;10.70;81.20
20487;DHT22;10402;49.012;8.370;2024-01-25T07:08:21;10.60;81.20
20487;DHT22;10402;49.012;8.370;2024-01-25T07:10:47;10.60;81.50
20487;DHT22;10402;49.012;8.370;2024-01-25T07:13:12;10.60;81.80
20487;DHT22;10402;49.012;8.370;2024-01-25T07:15:38;10.60;81.80
20487;DHT22;10402;49.012;8.370;2024-01-25T07:18:03;10.60;82.00
20487;DHT22;10402;49.012;8.370;2024-01-25T07:20:29;10.60;82.20
20487;DHT22;10402;49.012;8.370;2024-01-25T07:22:55;10.60;82.30
20487;DHT22;10402;49.012;8.370;2024-01-25T07:25:21;10.60;82.70
20487;DHT22;10402;49.012;8.370;2024-01-25T07:27:46;10.60;83.10
20487;DHT22;10402;49.012;8.370;2024-01-25T07:30:13;10.60;83.60
20487;DHT22;10402;49.012;8.370;2024-01-25T07:32:39;10.60;84.00
20487;DHT22;10402;49.012;8.370;2024-01-25T07:35:07;10.60;84.40
20487;DHT22;10402;49.012;8.370;2024-01-25T07:37:33;10.70;84.70
20487;DHT22;10402;49.012;8.370;2024-01-25T07:39:58;10.60;84.70
20487;DHT22;10402;49.012;8.370;2024-01-25T07:42:24;10.60;84.90
20487;DHT22;10402;49.012;8.370;2024-01-25T07:44:49;10.60;85.30
20487;DHT22;10402;49.012;8.370;2024-01-25T07:47:15;10.60;85.60
20487;DHT22;10402;49.012;8.370;2024-01-25T07:49:41;10.60;86.00
20487;DHT22;10402;49.012;8.370;2024-01-25T07:52:06;10.50;86.10
20487;DHT22;10402;49.012;8.370;2024-01-25T07:54:32;10.50;86.30
20487;DHT22;10402;49.012;8.370;2024-01-25T07:56:57;10.50;86.60
20487;DHT22;10402;49.012;8.370;2024-01-25T07:59:23;10.50;86.80
20487;DHT22;10402;49.012;8.370;2024-01-25T08:01:48;10.50;87.10
20487;DHT22;10402;49.012;8.370;2024-01-25T08:04:14;10.50;87.40
20487;DHT22;10402;49.012;8.370;2024-01-25T08:06:39;10.50;87.90
20487;DHT22;10402;49.012;8.370;2024-01-25T08:09:05;10.40;88.00
20487;DHT22;10402;49.012;8.370;2024-01-25T08:11:30;10.40;88.20
20487;DHT22;10402;49.012;8.370;2024-01-25T08:13:56;10.40;88.40
20487;DHT22;10402;49.012;8.370;2024-01-25T08:16:22;10.40;88.70
20487;DHT22;10402;49.012;8.370;2024-01-25T08:18:48;10.40;88.90
20487;DHT22;10402;49.012;8.370;2024-01-25T08:21:14;10.40;89.00
20487;DHT22;10402;49.012;8.370;2024-01-25T08:23:39;10.40;89.40
20487;DHT22;10402;49.012;8.370;2024-01-25T08:26:05;10.50;89.60
20487;DHT22;10402;49.012;8.370;2024-01-25T08:28:39;10.50;89.90
20487;DHT22;10402;49.012;8.370;2024-01-25T08:31:04;10.50;89.90
20487;DHT22;10402;49.012;8.370;2024-01-25T08:33:30;10.50;90.00
20487;DHT22;10402;49.012;8.370;2024-01-25T08:35:56;10.50;90.10
20487;DHT22;10402;49.012;8.370;2024-01-25T08:38:21;10.50;90.20
20487;DHT22;10402;49.012;8.370;2024-01-25T08:40:47;10.60;90.30
20487;DHT22;10402;49.012;8.370;2024-01-25T08:43:12;10.60;90.40
20487;DHT22;10402;49.012;8.370;2024-01-25T08:45:38;10.60;90.40
20487;DHT22;10402;49.012;8.370;2024-01-25T08:48:04;10.60;90.40
20487;DHT22;10402;49.012;8.370;2024-01-25T08:50:30;10.70;90.50
20487;DHT22;10402;49.012;8.370;2024-01-25T08:52:55;10.70;90.50
20487;DHT22;10402;49.012;8.370;2024-01-25T08:55:21;10.70;90.50
20487;DHT22;10402;49.012;8.370;2024-01-25T08:57:48;10.70;90.60
20487;DHT22;10402;49.012;8.370;2024-01-25T09:00:14;10.70;90.60
20487;DHT22;10402;49.012;8.370;2024-01-25T09:02:40;10.80;90.70
20487;DHT22;10402;49.012;8.370;2024-01-25T09:05:06;10.80;90.70
20487;DHT22;10402;49.012;8.370;2024-01-25T09:07:32;10.80;90.70
20487;DHT22;10402;49.012;8.370;2024-01-25T09:09:58;10.80;90.70
20487;DHT22;10402;49.012;8.370;2024-01-25T09:12:24;10.90;90.90
20487;DHT22;10402;49.012;8.370;2024-01-25T09:14:49;10.90;90.80
20487;DHT22;10402;49.012;8.370;2024-01-25T09:17:15;10.90;90.70
20487;DHT22;10402;49.012;8.370;2024-01-25T09:19:49;11.00;90.80
20487;DHT22;10402;49.012;8.370;2024-01-25T09:22:16;11.00;90.60
20487;DHT22;10402;49.012;8.370;2024-01-25T09:24:43;11.00;90.70
20487;DHT22;10402;49.012;8.370;2024-01-25T09:27:09;11.10;90.60
20487;DHT22;10402;49.012;8.370;2024-01-25T09:29:34;11.10;90.70
20487;DHT22;10402;49.012;8.370;2024-01-25T09:32:00;11.20;90.70
20487;DHT22;10402;49.012;8.370;2024-01-25T09:34:26;11.20;90.60
20487;DHT22;10402;49.012;8.370;2024-01-25T09:36:51;11.30;90.60
20487;DHT22;10402;49.012;8.370;2024-01-25T09:39:17;11.30;90.50
20487;DHT22;10402;49.012;8.370;2024-01-25T09:41:43;11.30;90.40
20487;DHT22;10402;49.012;8.370;2024-01-25T09:44:09;11.30;90.40
20487;DHT22;10402;49.012;8.370;2024-01-25T09:46:35;11.40;90.40
20487;DHT22;10402;49.012;8.370;2024-01-25T09:49:01;11.40;90.60
20487;DHT22;10402;49.012;8.370;2024-01-25T09:51:32;11.40;90.30
20487;DHT22;10402;49.012;8.370;2024-01-25T09:53:59;11.40;90.20
20487;DHT22;10402;49.012;8.370;2024-01-25T09:56:27;11.40;90.20
20487;DHT22;10402;49.012;8.370;2024-01-25T09:58:56;11.50;90.20
20487;DHT22;10402;49.012;8.370;2024-01-25T10:01:22;11.50;90.20
20487;DHT22;10402;49.012;8.370;2024-01-25T10:03:48;11.50;90.00
20487;DHT22;10402;49.012;8.370;2024-01-25T10:06:14;11.60;90.10
20487;DHT22;10402;49.012;8.370;2024-01-25T10:08:40;11.60;90.00
20487;DHT22;10402;49.012;8.370;2024-01-25T10:11:07;11.60;90.00
20487;DHT22;10402;49.012;8.370;2024-01-25T10:13:44;11.70;89.90
20487;DHT22;10402;49.012;8.370;2024-01-25T10:16:17;11.70;89.50
20487;DHT22;10402;49.012;8.370;2024-01-25T10:18:45;11.70;89.90
20487;DHT22;10402;49.012;8.370;2024-01-25T10:21:11;11.70;89.00
20487;DHT22;10402;49.012;8.370;2024-01-25T10:23:38;11.70;88.60
20487;DHT22;10402;49.012;8.370;2024-01-25T10:26:04;11.80;88.60
20487;DHT22;10402;49.012;8.370;2024-01-25T10:28:29;11.80;88.20
20487;DHT22;10402;49.012;8.370;2024-01-25T10:30:57;11.80;88.00
20487;DHT22;10402;49.012;8.370;2024-01-25T10:33:26;11.90;87.90
20487;DHT22;10402;49.012;8.370;2024-01-25T10:35:54;11.90;87.80
20487;DHT22;10402;49.012;8.370;2024-01-25T10:38:21;12.00;87.20
20487;DHT22;10402;49.012;8.370;2024-01-25T10:40:47;12.10;87.10
20487;DHT22;10402;49.012;8.370;2024-01-25T10:43:13;12.10;87.10
20487;DHT22;10402;49.012;8.370;2024-01-25T10:45:38;12.10;86.60
20487;DHT22;10402;49.012;8.370;2024-01-25T10:48:05;12.10;86.30
20487;DHT22;10402;49.012;8.370;2024-01-25T10:50:32;12.10;86.30
20487;DHT22;10402;49.012;8.370;2024-01-25T10:52:58;12.10;86.20
20487;DHT22;10402;49.012;8.370;2024-01-25T10:55:25;12.10;86.10
20487;DHT22;10402;49.012;8.370;2024-01-25T10:57:51;12.10;85.60
20487;DHT22;10402;49.012;8.370;2024-01-25T11:00:18;12.20;85.60
20487;DHT22;10402;49.012;8.370;2024-01-25T11:02:45;12.20;85.30
20487;DHT22;10402;49.012;8.370;2024-01-25T11:05:15;12.20;85.60
20487;DHT22;10402;49.012;8.370;2024-01-25T11:07:42;12.20;84.60
20487;DHT22;10402;49.012;8.370;2024-01-25T11:13:00;12.20;83.60
20487;DHT22;10402;49.012;8.370;2024-01-25T11:15:31;12.20;83.80
20487;DHT22;10402;49.012;8.370;2024-01-25T11:17:57;12.20;83.80
20487;DHT22;10402;49.012;8.370;2024-01-25T11:20:24;12.20;83.50
20487;DHT22;10402;49.012;8.370;2024-01-25T11:23:02;12.20;83.60
20487;DHT22;10402;49.012;8.370;2024-01-25T11:25:33;12.20;83.50
20487;DHT22;10402;49.012;8.370;2024-01-25T11:27:59;12.20;83.50
20487;DHT22;10402;49.012;8.370;2024-01-25T11:30:26;12.20;83.70
20487;DHT22;10402;49.012;8.370;2024-01-25T11:32:52;12.20;83.60
20487;DHT22;10402;49.012;8.370;2024-01-25T11:35:18;12.20;83.60
20487;DHT22;10402;49.012;8.370;2024-01-25T11:37:47;12.30;83.70
20487;DHT22;10402;49.012;8.370;2024-01-25T11:40:14;12.30;83.60
20487;DHT22;10402;49.012;8.370;2024-01-25T11:42:42;12.30;83.40
20487;DHT22;10402;49.012;8.370;2024-01-25T11:45:11;12.30;83.30
20487;DHT22;10402;49.012;8.370;2024-01-25T11:47:38;12.30;83.20
20487;DHT22;10402;49.012;8.370;2024-01-25T11:50:08;12.30;83.20
20487;DHT22;10402;49.012;8.370;2024-01-25T11:52:34;12.30;83.40
20487;DHT22;10402;49.012;8.370;2024-01-25T11:55:07;12.30;83.40
20487;DHT22;10402;49.012;8.370;2024-01-25T11:57:36;12.30;83.30
20487;DHT22;10402;49.012;8.370;2024-01-25T12:00:03;12.30;82.80
20487;DHT22;10402;49.012;8.370;2024-01-25T12:02:30;12.30;82.90
20487;DHT22;10402;49.012;8.370;2024-01-25T12:04:57;12.20;82.90
20487;DHT22;10402;49.012;8.370;2024-01-25T12:07:23;12.20;82.80
20487;DHT22;10402;49.012;8.370;2024-01-25T12:09:59;12.30;82.60
20487;DHT22;10402;49.012;8.370;2024-01-25T12:12:25;12.30;82.30
20487;DHT22;10402;49.012;8.370;2024-01-25T12:14:51;12.30;82.10
20487;DHT22;10402;49.012;8.370;2024-01-25T12:17:17;12.30;82.20
20487;DHT22;10402;49.012;8.370;2024-01-25T12:19:43;12.30;82.10
20487;DHT22;10402;49.012;8.370;2024-01-25T12:22:09;12.30;82.00
20487;DHT22;10402;49.012;8.370;2024-01-25T12:24:35;12.30;81.90
20487;DHT22;10402;49.012;8.370;2024-01-25T12:27:00;12.30;81.80
20487;DHT22;10402;49.012;8.370;2024-01-25T12:29:26;12.30;81.80
20487;DHT22;10402;49.012;8.370;2024-01-25T12:31:51;12.30;81.80
20487;DHT22;10402;49.012;8.370;2024-01-25T12:34:17;12.30;81.70
20487;DHT22;10402;49.012;8.370;2024-01-25T12:36:43;12.30;81.50
20487;DHT22;10402;49.012;8.370;2024-01-25T12:39:08;12.30;81.10
20487;DHT22;10402;49.012;8.370;2024-01-25T12:41:35;12.30;80.90
20487;DHT22;10402;49.012;8.370;2024-01-25T12:44:01;12.30;80.70
20487;DHT22;10402;49.012;8.370;2024-01-25T12:46:26;12.30;80.80
20487;DHT22;10402;49.012;8.370;2024-01-25T12:48:52;12.30;80.50
20487;DHT22;10402;49.012;8.370;2024-01-25T12:51:20;12.30;80.30
20487;DHT22;10402;49.012;8.370;2024-01-25T12:53:47;12.40;80.00
20487;DHT22;10402;49.012;8.370;2024-01-25T12:56:13;12.40;79.80
20487;DHT22;10402;49.012;8.370;2024-01-25T12:58:38;12.40;79.60
20487;DHT22;10402;49.012;8.370;2024-01-25T13:01:04;12.40;79.60
20487;DHT22;10402;49.012;8.370;2024-01-25T13:03:30;12.50;79.60
20487;DHT22;10402;49.012;8.370;2024-01-25T13:05:56;12.40;79.00
20487;DHT22;10402;49.012;8.370;2024-01-25T13:08:21;12.50;79.20
20487;DHT22;10402;49.012;8.370;2024-01-25T13:10:47;12.40;79.00
20487;DHT22;10402;49.012;8.370;2024-01-25T13:13:12;12.40;79.10
20487;DHT22;10402;49.012;8.370;2024-01-25T13:15:38;12.50;79.10
20487;DHT22;10402;49.012;8.370;2024-01-25T13:18:03;12.50;79.20
20487;DHT22;10402;49.012;8.370;2024-01-25T13:20:29;12.50;79.10
20487;DHT22;10402;49.012;8.370;2024-01-25T13:22:54;12.50;79.10
20487;DHT22;10402;49.012;8.370;2024-01-25T13:25:20;12.50;78.90
20487;DHT22;10402;49.012;8.370;2024-01-25T13:27:45;12.50;78.80
20487;DHT22;10402;49.012;8.370;2024-01-25T13:30:11;12.50;78.80
20487;DHT22;10402;49.012;8.370;2024-01-25T13:32:37;12.60;78.80
20487;DHT22;10402;49.012;8.370;2024-01-25T13:35:03;12.60;78.80
20487;DHT22;10402;49.012;8.370;2024-01-25T13:37:29;12.60;79.00
20487;DHT22;10402;49.012;8.370;2024-01-25T13:39:55;12.60;79.00
20487;DHT22;10402;49.012;8.370;2024-01-25T13:42:20;12.60;78.90
20487;DHT22;10402;49.012;8.370;2024-01-25T13:44:46;12.60;78.60
20487;DHT22;10402;49.012;8.370;2024-01-25T13:47:11;12.60;78.30
20487;DHT22;10402;49.012;8.370;2024-01-25T13:49:37;12.60;78.30
20487;DHT22;10402;49.012;8.370;2024-01-25T13:52:03;12.60;78.30
20487;DHT22;10402;49.012;8.370;2024-01-25T13:54:29;12.60;78.40
20487;DHT22;10402;49.012;8.370;2024-01-25T13:56:55;12.60;78.60
20487;DHT22;10402;49.012;8.370;2024-01-25T13:59:21;12.60;79.50
20487;DHT22;10402;49.012;8.370;2024-01-25T14:01:46;12.60;78.90
20487;DHT22;10402;49.012;8.370;2024-01-25T14:04:12;12.60;79.00
20487;DHT22;10402;49.012;8.370;2024-01-25T14:06:38;12.60;79.00
20487;DHT22;10402;49.012;8.370;2024-01-25T14:09:04;12.60;79.10
20487;DHT22;10402;49.012;8.370;2024-01-25T14:11:30;12.60;79.30
20487;DHT22;10402;49.012;8.370;2024-01-25T14:13:56;12.60;79.50
20487;DHT22;10402;49.012;8.370;2024-01-25T14:16:22;12.60;79.70
20487;DHT22;10402;49.012;8.370;2024-01-25T14:18:47;12.60;79.70
20487;DHT22;10402;49.012;8.370;2024-01-25T14:21:13;12.60;79.80
20487;DHT22;10402;49.012;8.370;2024-01-25T14:23:38;12.60;80.00
20487;DHT22;10402;49.012;8.370;2024-01-25T14:26:04;12.60;80.00
20487;DHT22;10402;49.012;8.370;2024-01-25T14:28:29;12.60;80.20
20487;DHT22;10402;49.012;8.370;2024-01-25T14:30:55;12.60;80.30
20487;DHT22;10402;49.012;8.370;2024-01-25T14:33:20;12.60;80.30
20487;DHT22;10402;49.012;8.370;2024-01-25T14:35:46;12.70;80.60
20487;DHT22;10402;49.012;8.370;2024-01-25T14:38:11;12.70;80.60
20487;DHT22;10402;49.012;8.370;2024-01-25T14:40:37;12.60;80.60
20487;DHT22;10402;49.012;8.370;2024-01-25T14:43:03;12.60;80.70
20487;DHT22;10402;49.012;8.370;2024-01-25T14:45:28;12.60;80.80
20487;DHT22;10402;49.012;8.370;2024-01-25T14:47:58;12.60;81.00
20487;DHT22;10402;49.012;8.370;2024-01-25T14:50:24;12.60;81.00
20487;DHT22;10402;49.012;8.370;2024-01-25T14:52:49;12.60;81.10
20487;DHT22;10402;49.012;8.370;2024-01-25T14:55:15;12.60;81.20
20487;DHT22;10402;49.012;8.370;2024-01-25T14:57:40;12.60;81.20
20487;DHT22;10402;49.012;8.370;2024-01-25T15:00:06;12.60;81.30
20487;DHT22;10402;49.012;8.370;2024-01-25T15:02:33;12.60;81.30
20487;DHT22;10402;49.012;8.370;2024-01-25T15:04:59;12.60;81.30
20487;DHT22;10402;49.012;8.370;2024-01-25T15:07:24;12.60;81.50
20487;DHT22;10402;49.012;8.370;2024-01-25T15:09:50;12.60;81.70
20487;DHT22;10402;49.012;8.370;2024-01-25T15:12:16;12.60;82.00
20487;DHT22;10402;49.012;8.370;2024-01-25T15:14:41;12.60;82.30
20487;DHT22;10402;49.012;8.370;2024-01-25T15:17:07;12.50;82.60
20487;DHT22;10402;49.012;8.370;2024-01-25T15:19:33;12.50;83.10
20487;DHT22;10402;49.012;8.370;2024-01-25T15:21:58;12.50;83.60
20487;DHT22;10402;49.012;8.370;2024-01-25T15:24:24;12.40;83.80